Αρχική σελίδα
METAR-TAF:

METAR-TAF

Αεροδρόμια :

Fort McPherson, Βορειοδυτικά Εδάφη, Καναδάς

γεωγραφικό πλάτος: 67-24N, γεωγραφικό μήκος: 134-51W, υψόμετρο: 43 μ

Παρών καιρός

Η αναφορά έγινε 7 ώρες και 34 λεπτά πριν, στις 00:00 UTC
Άνεμος 7 kt από Ν/NA
Θερμοκρασία -31°C
Υγρασία 75%
Πίεση 1017 hPa
Ορατότητα: 56.3 χλμ
Καθαρός ουρανός

METAR: CZFM 190000Z 16007KT 35SM SKC M31/M34 A3004 RMK S0.0 AFT14UTC 64.0/SNWCVR/MUCH LOOSE LAST STFD OBS/NXT 191500Z SLP181

Χρόνος: 00:34 (07:34 UTC)

Πρόγνωση Καιρού

Η αναφορά έγινε 12 ώρες και 56 λεπτά πριν, στις 18:38 UTC
Η πρόγνωση ισχύει από τις 18 στις 19 UTC έως τις 18 στις 24 UTC
Άνεμος 8 kt από Ν/NA
Ορατότητα: 10 χλμ
Καθαρός ουρανός

TAF: CZFM 181838Z 1819/1824 16008KT P6SM SKC RMK NXT FCST WILL BE ISSUED AT 191645Z

Μετεωρολογικές αναφορές και προγνώσεις για περισσότερα από 4000 αεροδρόμια (δελτία METAR και TAF).

Οι διαθέσιμοι σταθμοί απεικονίζονται στο χάρτη με κίτρινες και κόκκινες κουκκίδες.

Μετακινήστε το ποντίκι πάνω από τις κουκκίδες για να δείτε το όνομα του σταθμού.

Στη συνέχεια, κάντε κλικ για να δείτε τις μετεωρολογικές αναφορές και τις προγνώσεις καιρού.

Για να αλλάξετε το χάρτη: κάντε κλικ στα πράσινα κουμπιά με τον μαύρο σταυρό για να ζουμάρετε, στο πράσινο κουμπί με την παύλα για να αφαιρέσετε το ζουμ ή στα πράσινα βέλη για να αντιπαραβάλλετε χάρτες.


METAR-TAF: